sensor_id;sensor_type;location;lat;lon;timestamp;P1;durP1;ratioP1;P2;durP2;ratioP2
3085;SDS011;52812;48.960;9.108;2023-06-26T00:00:11;1.20;;;1.10;;
3085;SDS011;52812;48.960;9.108;2023-06-26T00:02:37;1.40;;;1.30;;
3085;SDS011;52812;48.960;9.108;2023-06-26T00:05:03;1.33;;;1.23;;
3085;SDS011;52812;48.960;9.108;2023-06-26T00:07:30;1.70;;;1.27;;
3085;SDS011;52812;48.960;9.108;2023-06-26T00:09:56;1.47;;;1.37;;
3085;SDS011;52812;48.960;9.108;2023-06-26T00:12:23;1.33;;;1.20;;
3085;SDS011;52812;48.960;9.108;2023-06-26T00:14:49;1.43;;;1.03;;
3085;SDS011;52812;48.960;9.108;2023-06-26T00:17:14;1.23;;;0.97;;
3085;SDS011;52812;48.960;9.108;2023-06-26T00:19:40;0.90;;;0.90;;
3085;SDS011;52812;48.960;9.108;2023-06-26T00:22:05;1.83;;;1.63;;
3085;SDS011;52812;48.960;9.108;2023-06-26T00:24:31;1.40;;;1.10;;
3085;SDS011;52812;48.960;9.108;2023-06-26T00:26:56;1.77;;;1.67;;
3085;SDS011;52812;48.960;9.108;2023-06-26T00:29:23;1.83;;;1.57;;
3085;SDS011;52812;48.960;9.108;2023-06-26T00:31:49;2.30;;;1.37;;
3085;SDS011;52812;48.960;9.108;2023-06-26T00:34:15;1.50;;;1.30;;
3085;SDS011;52812;48.960;9.108;2023-06-26T00:36:40;1.10;;;1.00;;
3085;SDS011;52812;48.960;9.108;2023-06-26T00:39:08;4.00;;;1.33;;
3085;SDS011;52812;48.960;9.108;2023-06-26T00:41:35;2.67;;;1.30;;
3085;SDS011;52812;48.960;9.108;2023-06-26T00:44:02;1.30;;;1.20;;
3085;SDS011;52812;48.960;9.108;2023-06-26T00:46:28;1.30;;;1.20;;
3085;SDS011;52812;48.960;9.108;2023-06-26T00:48:54;1.20;;;1.10;;
3085;SDS011;52812;48.960;9.108;2023-06-26T00:51:21;1.90;;;1.60;;
3085;SDS011;52812;48.960;9.108;2023-06-26T00:53:47;1.00;;;0.90;;
3085;SDS011;52812;48.960;9.108;2023-06-26T00:56:13;0.90;;;0.90;;
3085;SDS011;52812;48.960;9.108;2023-06-26T00:58:40;1.80;;;1.60;;
3085;SDS011;52812;48.960;9.108;2023-06-26T01:01:05;1.63;;;1.53;;
3085;SDS011;52812;48.960;9.108;2023-06-26T01:03:33;1.37;;;1.17;;
3085;SDS011;52812;48.960;9.108;2023-06-26T01:05:59;1.13;;;0.93;;
3085;SDS011;52812;48.960;9.108;2023-06-26T01:08:26;1.20;;;1.10;;
3085;SDS011;52812;48.960;9.108;2023-06-26T01:10:52;1.20;;;1.10;;
3085;SDS011;52812;48.960;9.108;2023-06-26T01:13:18;1.13;;;1.00;;
3085;SDS011;52812;48.960;9.108;2023-06-26T01:15:44;1.57;;;1.20;;
3085;SDS011;52812;48.960;9.108;2023-06-26T01:18:11;1.50;;;1.20;;
3085;SDS011;52812;48.960;9.108;2023-06-26T01:20:37;1.27;;;1.17;;
3085;SDS011;52812;48.960;9.108;2023-06-26T01:23:12;1.10;;;1.00;;
3085;SDS011;52812;48.960;9.108;2023-06-26T01:28:35;0.90;;;0.90;;
3085;SDS011;52812;48.960;9.108;2023-06-26T01:31:07;1.50;;;1.00;;
3085;SDS011;52812;48.960;9.108;2023-06-26T01:33:33;1.37;;;1.27;;
3085;SDS011;52812;48.960;9.108;2023-06-26T01:35:59;1.40;;;1.30;;
3085;SDS011;52812;48.960;9.108;2023-06-26T01:38:25;1.90;;;1.17;;
3085;SDS011;52812;48.960;9.108;2023-06-26T01:40:51;1.27;;;1.17;;
3085;SDS011;52812;48.960;9.108;2023-06-26T01:45:46;1.13;;;1.03;;
3085;SDS011;52812;48.960;9.108;2023-06-26T01:48:15;1.23;;;1.13;;
3085;SDS011;52812;48.960;9.108;2023-06-26T01:50:44;1.20;;;1.10;;
3085;SDS011;52812;48.960;9.108;2023-06-26T01:53:11;1.80;;;1.57;;
3085;SDS011;52812;48.960;9.108;2023-06-26T01:55:51;1.13;;;1.03;;
3085;SDS011;52812;48.960;9.108;2023-06-26T01:58:22;1.70;;;1.43;;
3085;SDS011;52812;48.960;9.108;2023-06-26T02:00:50;1.17;;;1.07;;
3085;SDS011;52812;48.960;9.108;2023-06-26T02:03:16;1.50;;;1.40;;
3085;SDS011;52812;48.960;9.108;2023-06-26T02:05:41;1.07;;;0.93;;
3085;SDS011;52812;48.960;9.108;2023-06-26T02:08:08;1.40;;;1.20;;
3085;SDS011;52812;48.960;9.108;2023-06-26T02:10:34;1.07;;;0.97;;
3085;SDS011;52812;48.960;9.108;2023-06-26T02:13:00;1.00;;;0.90;;
3085;SDS011;52812;48.960;9.108;2023-06-26T02:15:26;2.10;;;1.47;;
3085;SDS011;52812;48.960;9.108;2023-06-26T02:17:51;1.43;;;1.33;;
3085;SDS011;52812;48.960;9.108;2023-06-26T02:20:17;1.07;;;0.97;;
3085;SDS011;52812;48.960;9.108;2023-06-26T02:22:42;1.40;;;1.20;;
3085;SDS011;52812;48.960;9.108;2023-06-26T02:25:11;1.20;;;1.10;;
3085;SDS011;52812;48.960;9.108;2023-06-26T02:27:37;0.90;;;0.80;;
3085;SDS011;52812;48.960;9.108;2023-06-26T02:30:03;1.80;;;1.43;;
3085;SDS011;52812;48.960;9.108;2023-06-26T02:32:30;1.17;;;1.07;;
3085;SDS011;52812;48.960;9.108;2023-06-26T02:34:55;1.20;;;1.10;;
3085;SDS011;52812;48.960;9.108;2023-06-26T02:37:21;1.23;;;0.90;;
3085;SDS011;52812;48.960;9.108;2023-06-26T02:39:46;1.20;;;1.00;;
3085;SDS011;52812;48.960;9.108;2023-06-26T02:42:12;1.63;;;1.10;;
3085;SDS011;52812;48.960;9.108;2023-06-26T02:44:37;1.20;;;1.10;;
3085;SDS011;52812;48.960;9.108;2023-06-26T02:47:03;1.20;;;1.10;;
3085;SDS011;52812;48.960;9.108;2023-06-26T02:49:29;0.80;;;0.80;;
3085;SDS011;52812;48.960;9.108;2023-06-26T02:51:54;1.00;;;0.90;;
3085;SDS011;52812;48.960;9.108;2023-06-26T02:54:20;1.70;;;1.60;;
3085;SDS011;52812;48.960;9.108;2023-06-26T02:56:45;1.00;;;0.97;;
3085;SDS011;52812;48.960;9.108;2023-06-26T02:59:11;1.17;;;1.07;;
3085;SDS011;52812;48.960;9.108;2023-06-26T03:01:36;1.50;;;1.40;;
3085;SDS011;52812;48.960;9.108;2023-06-26T03:04:02;1.97;;;1.30;;
3085;SDS011;52812;48.960;9.108;2023-06-26T03:06:29;1.33;;;0.90;;
3085;SDS011;52812;48.960;9.108;2023-06-26T03:08:54;1.45;;;1.35;;
3085;SDS011;52812;48.960;9.108;2023-06-26T03:11:20;1.53;;;1.40;;
3085;SDS011;52812;48.960;9.108;2023-06-26T03:13:45;1.10;;;0.93;;
3085;SDS011;52812;48.960;9.108;2023-06-26T03:16:12;1.60;;;1.50;;
3085;SDS011;52812;48.960;9.108;2023-06-26T03:18:37;1.03;;;0.93;;
3085;SDS011;52812;48.960;9.108;2023-06-26T03:21:03;1.10;;;1.00;;
3085;SDS011;52812;48.960;9.108;2023-06-26T03:23:29;1.73;;;1.40;;
3085;SDS011;52812;48.960;9.108;2023-06-26T03:25:54;1.03;;;0.93;;
3085;SDS011;52812;48.960;9.108;2023-06-26T03:28:20;1.30;;;1.17;;
3085;SDS011;52812;48.960;9.108;2023-06-26T03:30:45;1.10;;;1.00;;
3085;SDS011;52812;48.960;9.108;2023-06-26T03:33:11;2.30;;;1.93;;
3085;SDS011;52812;48.960;9.108;2023-06-26T03:35:37;1.10;;;1.00;;
3085;SDS011;52812;48.960;9.108;2023-06-26T03:38:03;1.30;;;1.20;;
3085;SDS011;52812;48.960;9.108;2023-06-26T03:40:29;1.10;;;1.00;;
3085;SDS011;52812;48.960;9.108;2023-06-26T03:42:55;1.50;;;1.20;;
3085;SDS011;52812;48.960;9.108;2023-06-26T03:45:20;1.20;;;1.00;;
3085;SDS011;52812;48.960;9.108;2023-06-26T03:47:46;1.20;;;1.10;;
3085;SDS011;52812;48.960;9.108;2023-06-26T03:50:14;1.30;;;1.20;;
3085;SDS011;52812;48.960;9.108;2023-06-26T03:52:42;2.40;;;2.23;;
3085;SDS011;52812;48.960;9.108;2023-06-26T03:55:08;1.67;;;1.43;;
3085;SDS011;52812;48.960;9.108;2023-06-26T03:57:34;1.40;;;1.23;;
3085;SDS011;52812;48.960;9.108;2023-06-26T03:59:59;1.30;;;1.00;;
3085;SDS011;52812;48.960;9.108;2023-06-26T04:02:25;0.80;;;0.80;;
3085;SDS011;52812;48.960;9.108;2023-06-26T04:04:51;1.83;;;1.57;;
3085;SDS011;52812;48.960;9.108;2023-06-26T04:07:17;1.07;;;0.97;;
3085;SDS011;52812;48.960;9.108;2023-06-26T04:09:43;1.33;;;1.23;;
3085;SDS011;52812;48.960;9.108;2023-06-26T04:12:09;1.40;;;1.30;;
3085;SDS011;52812;48.960;9.108;2023-06-26T04:14:35;1.27;;;1.13;;
3085;SDS011;52812;48.960;9.108;2023-06-26T04:17:00;1.00;;;0.90;;
3085;SDS011;52812;48.960;9.108;2023-06-26T04:19:28;3.03;;;1.30;;
3085;SDS011;52812;48.960;9.108;2023-06-26T04:21:54;1.83;;;1.30;;
3085;SDS011;52812;48.960;9.108;2023-06-26T04:24:19;1.30;;;1.20;;
3085;SDS011;52812;48.960;9.108;2023-06-26T04:26:45;1.33;;;1.20;;
3085;SDS011;52812;48.960;9.108;2023-06-26T04:29:11;1.53;;;1.43;;
3085;SDS011;52812;48.960;9.108;2023-06-26T04:31:36;2.50;;;1.37;;
3085;SDS011;52812;48.960;9.108;2023-06-26T04:34:03;1.20;;;1.10;;
3085;SDS011;52812;48.960;9.108;2023-06-26T04:36:30;2.37;;;1.70;;
3085;SDS011;52812;48.960;9.108;2023-06-26T04:38:58;1.83;;;1.27;;
3085;SDS011;52812;48.960;9.108;2023-06-26T04:41:24;1.40;;;1.30;;
3085;SDS011;52812;48.960;9.108;2023-06-26T04:43:49;1.73;;;1.50;;
3085;SDS011;52812;48.960;9.108;2023-06-26T04:46:15;1.50;;;1.30;;
3085;SDS011;52812;48.960;9.108;2023-06-26T04:48:40;1.90;;;1.37;;
3085;SDS011;52812;48.960;9.108;2023-06-26T04:51:06;2.00;;;1.90;;
3085;SDS011;52812;48.960;9.108;2023-06-26T04:53:32;2.10;;;1.90;;
3085;SDS011;52812;48.960;9.108;2023-06-26T04:55:57;2.53;;;1.53;;
3085;SDS011;52812;48.960;9.108;2023-06-26T04:58:23;1.50;;;1.40;;
3085;SDS011;52812;48.960;9.108;2023-06-26T05:00:48;1.47;;;1.37;;
3085;SDS011;52812;48.960;9.108;2023-06-26T05:03:14;1.40;;;1.27;;
3085;SDS011;52812;48.960;9.108;2023-06-26T05:05:42;2.67;;;1.93;;
3085;SDS011;52812;48.960;9.108;2023-06-26T05:08:18;2.20;;;2.10;;
3085;SDS011;52812;48.960;9.108;2023-06-26T05:10:47;2.50;;;1.57;;
3085;SDS011;52812;48.960;9.108;2023-06-26T05:13:13;2.00;;;1.87;;
3085;SDS011;52812;48.960;9.108;2023-06-26T05:15:42;1.50;;;1.40;;
3085;SDS011;52812;48.960;9.108;2023-06-26T05:18:11;1.50;;;1.30;;
3085;SDS011;52812;48.960;9.108;2023-06-26T05:20:37;4.30;;;1.87;;
3085;SDS011;52812;48.960;9.108;2023-06-26T05:23:04;2.10;;;1.43;;
3085;SDS011;52812;48.960;9.108;2023-06-26T05:25:30;2.23;;;1.83;;
3085;SDS011;52812;48.960;9.108;2023-06-26T05:27:57;4.97;;;2.27;;
3085;SDS011;52812;48.960;9.108;2023-06-26T05:30:26;2.73;;;1.80;;
3085;SDS011;52812;48.960;9.108;2023-06-26T05:32:52;2.20;;;1.90;;
3085;SDS011;52812;48.960;9.108;2023-06-26T05:35:22;2.10;;;1.73;;
3085;SDS011;52812;48.960;9.108;2023-06-26T05:37:49;2.27;;;1.93;;
3085;SDS011;52812;48.960;9.108;2023-06-26T05:40:16;2.07;;;1.87;;
3085;SDS011;52812;48.960;9.108;2023-06-26T05:42:42;1.90;;;1.80;;
3085;SDS011;52812;48.960;9.108;2023-06-26T05:45:09;2.93;;;1.83;;
3085;SDS011;52812;48.960;9.108;2023-06-26T05:47:35;1.83;;;1.50;;
3085;SDS011;52812;48.960;9.108;2023-06-26T05:50:01;2.23;;;2.03;;
3085;SDS011;52812;48.960;9.108;2023-06-26T05:52:27;4.80;;;2.60;;
3085;SDS011;52812;48.960;9.108;2023-06-26T05:54:53;2.63;;;2.43;;
3085;SDS011;52812;48.960;9.108;2023-06-26T05:57:19;1.70;;;1.60;;
3085;SDS011;52812;48.960;9.108;2023-06-26T05:59:46;1.90;;;1.70;;
3085;SDS011;52812;48.960;9.108;2023-06-26T06:02:12;2.40;;;1.73;;
3085;SDS011;52812;48.960;9.108;2023-06-26T06:04:39;2.90;;;1.83;;
3085;SDS011;52812;48.960;9.108;2023-06-26T06:07:04;2.60;;;2.40;;
3085;SDS011;52812;48.960;9.108;2023-06-26T06:09:30;3.17;;;2.50;;
3085;SDS011;52812;48.960;9.108;2023-06-26T06:11:55;2.53;;;2.33;;
3085;SDS011;52812;48.960;9.108;2023-06-26T06:14:21;3.20;;;2.93;;
3085;SDS011;52812;48.960;9.108;2023-06-26T06:16:47;2.50;;;2.20;;
3085;SDS011;52812;48.960;9.108;2023-06-26T06:19:12;2.27;;;2.00;;
3085;SDS011;52812;48.960;9.108;2023-06-26T06:21:38;5.10;;;2.33;;
3085;SDS011;52812;48.960;9.108;2023-06-26T06:24:04;2.50;;;2.30;;
3085;SDS011;52812;48.960;9.108;2023-06-26T06:26:31;2.50;;;2.07;;
3085;SDS011;52812;48.960;9.108;2023-06-26T06:28:57;3.57;;;2.43;;
3085;SDS011;52812;48.960;9.108;2023-06-26T06:31:23;3.60;;;2.10;;
3085;SDS011;52812;48.960;9.108;2023-06-26T06:33:48;3.60;;;3.00;;
3085;SDS011;52812;48.960;9.108;2023-06-26T06:36:14;2.80;;;2.30;;
3085;SDS011;52812;48.960;9.108;2023-06-26T06:38:42;4.57;;;2.10;;
3085;SDS011;52812;48.960;9.108;2023-06-26T06:41:08;3.13;;;2.17;;
3085;SDS011;52812;48.960;9.108;2023-06-26T06:43:34;3.67;;;2.33;;
3085;SDS011;52812;48.960;9.108;2023-06-26T06:46:00;3.50;;;2.47;;
3085;SDS011;52812;48.960;9.108;2023-06-26T06:48:26;3.60;;;2.33;;
3085;SDS011;52812;48.960;9.108;2023-06-26T06:50:52;4.60;;;2.53;;
3085;SDS011;52812;48.960;9.108;2023-06-26T06:53:18;3.75;;;2.58;;
3085;SDS011;52812;48.960;9.108;2023-06-26T06:55:46;2.97;;;2.50;;
3085;SDS011;52812;48.960;9.108;2023-06-26T06:58:12;3.53;;;2.58;;
3085;SDS011;52812;48.960;9.108;2023-06-26T07:00:38;3.15;;;2.45;;
3085;SDS011;52812;48.960;9.108;2023-06-26T07:03:03;2.42;;;2.20;;
3085;SDS011;52812;48.960;9.108;2023-06-26T07:05:29;2.97;;;2.42;;
3085;SDS011;52812;48.960;9.108;2023-06-26T07:07:54;2.30;;;2.00;;
3085;SDS011;52812;48.960;9.108;2023-06-26T07:10:20;3.13;;;2.10;;
3085;SDS011;52812;48.960;9.108;2023-06-26T07:12:45;2.65;;;1.98;;
3085;SDS011;52812;48.960;9.108;2023-06-26T07:15:11;2.20;;;2.00;;
3085;SDS011;52812;48.960;9.108;2023-06-26T07:17:37;2.58;;;2.08;;
3085;SDS011;52812;48.960;9.108;2023-06-26T07:20:04;2.85;;;2.40;;
3085;SDS011;52812;48.960;9.108;2023-06-26T07:22:35;3.50;;;2.45;;
3085;SDS011;52812;48.960;9.108;2023-06-26T07:25:01;2.55;;;1.90;;
3085;SDS011;52812;48.960;9.108;2023-06-26T07:27:27;2.60;;;2.35;;
3085;SDS011;52812;48.960;9.108;2023-06-26T07:29:53;2.97;;;2.33;;
3085;SDS011;52812;48.960;9.108;2023-06-26T07:32:18;2.65;;;2.17;;
3085;SDS011;52812;48.960;9.108;2023-06-26T07:34:44;2.60;;;2.30;;
3085;SDS011;52812;48.960;9.108;2023-06-26T07:37:09;2.20;;;1.92;;
3085;SDS011;52812;48.960;9.108;2023-06-26T07:39:35;2.45;;;2.10;;
3085;SDS011;52812;48.960;9.108;2023-06-26T07:42:00;2.08;;;1.85;;
3085;SDS011;52812;48.960;9.108;2023-06-26T07:44:26;2.95;;;2.20;;
3085;SDS011;52812;48.960;9.108;2023-06-26T07:46:51;1.92;;;1.77;;
3085;SDS011;52812;48.960;9.108;2023-06-26T07:49:17;2.92;;;2.30;;
3085;SDS011;52812;48.960;9.108;2023-06-26T07:51:42;2.72;;;2.17;;
3085;SDS011;52812;48.960;9.108;2023-06-26T07:54:08;2.30;;;2.08;;
3085;SDS011;52812;48.960;9.108;2023-06-26T07:56:35;3.63;;;2.70;;
3085;SDS011;52812;48.960;9.108;2023-06-26T07:59:28;2.28;;;1.85;;
3085;SDS011;52812;48.960;9.108;2023-06-26T08:01:55;2.25;;;2.05;;
3085;SDS011;52812;48.960;9.108;2023-06-26T08:04:22;2.38;;;1.90;;
3085;SDS011;52812;48.960;9.108;2023-06-26T08:06:50;2.53;;;2.25;;
3085;SDS011;52812;48.960;9.108;2023-06-26T08:09:17;2.40;;;2.20;;
3085;SDS011;52812;48.960;9.108;2023-06-26T08:11:44;2.38;;;2.08;;
3085;SDS011;52812;48.960;9.108;2023-06-26T08:14:10;2.30;;;2.10;;
3085;SDS011;52812;48.960;9.108;2023-06-26T08:16:37;2.20;;;1.90;;
3085;SDS011;52812;48.960;9.108;2023-06-26T08:19:06;2.05;;;1.70;;
3085;SDS011;52812;48.960;9.108;2023-06-26T08:21:33;2.40;;;2.20;;
3085;SDS011;52812;48.960;9.108;2023-06-26T08:23:58;2.35;;;1.92;;
3085;SDS011;52812;48.960;9.108;2023-06-26T08:26:24;2.33;;;1.98;;
3085;SDS011;52812;48.960;9.108;2023-06-26T08:28:49;2.50;;;2.17;;
3085;SDS011;52812;48.960;9.108;2023-06-26T08:31:15;2.47;;;2.00;;
3085;SDS011;52812;48.960;9.108;2023-06-26T08:33:41;2.03;;;1.83;;
3085;SDS011;52812;48.960;9.108;2023-06-26T08:36:07;2.33;;;1.92;;
3085;SDS011;52812;48.960;9.108;2023-06-26T08:38:33;2.15;;;1.95;;
3085;SDS011;52812;48.960;9.108;2023-06-26T08:40:58;1.80;;;1.70;;
3085;SDS011;52812;48.960;9.108;2023-06-26T08:43:25;2.03;;;1.83;;
3085;SDS011;52812;48.960;9.108;2023-06-26T08:45:51;2.20;;;1.80;;
3085;SDS011;52812;48.960;9.108;2023-06-26T08:48:17;2.30;;;2.08;;
3085;SDS011;52812;48.960;9.108;2023-06-26T08:50:45;2.40;;;1.92;;
3085;SDS011;52812;48.960;9.108;2023-06-26T08:56:05;2.35;;;2.00;;
3085;SDS011;52812;48.960;9.108;2023-06-26T08:58:32;2.22;;;1.90;;
3085;SDS011;52812;48.960;9.108;2023-06-26T09:00:58;1.90;;;1.67;;
3085;SDS011;52812;48.960;9.108;2023-06-26T09:03:25;1.77;;;1.63;;
3085;SDS011;52812;48.960;9.108;2023-06-26T09:05:51;2.47;;;1.98;;
3085;SDS011;52812;48.960;9.108;2023-06-26T09:08:17;1.90;;;1.70;;
3085;SDS011;52812;48.960;9.108;2023-06-26T09:10:42;2.10;;;1.90;;
3085;SDS011;52812;48.960;9.108;2023-06-26T09:13:08;1.93;;;1.77;;
3085;SDS011;52812;48.960;9.108;2023-06-26T09:15:43;2.73;;;2.20;;
3085;SDS011;52812;48.960;9.108;2023-06-26T09:18:09;2.50;;;2.20;;
3085;SDS011;52812;48.960;9.108;2023-06-26T09:20:35;2.40;;;1.90;;
3085;SDS011;52812;48.960;9.108;2023-06-26T09:25:29;2.17;;;1.97;;
3085;SDS011;52812;48.960;9.108;2023-06-26T09:27:55;3.17;;;2.00;;
3085;SDS011;52812;48.960;9.108;2023-06-26T09:30:21;2.77;;;2.30;;
3085;SDS011;52812;48.960;9.108;2023-06-26T09:32:47;2.17;;;1.97;;
3085;SDS011;52812;48.960;9.108;2023-06-26T09:35:14;2.57;;;1.90;;
3085;SDS011;52812;48.960;9.108;2023-06-26T09:37:40;2.30;;;1.80;;
3085;SDS011;52812;48.960;9.108;2023-06-26T09:40:05;2.80;;;2.43;;
3085;SDS011;52812;48.960;9.108;2023-06-26T09:42:32;2.50;;;2.10;;
3085;SDS011;52812;48.960;9.108;2023-06-26T09:44:57;2.80;;;2.43;;
3085;SDS011;52812;48.960;9.108;2023-06-26T09:47:23;2.77;;;2.00;;
3085;SDS011;52812;48.960;9.108;2023-06-26T09:49:50;3.30;;;2.83;;
3085;SDS011;52812;48.960;9.108;2023-06-26T09:52:17;2.73;;;2.23;;
3085;SDS011;52812;48.960;9.108;2023-06-26T09:54:44;2.70;;;2.17;;
3085;SDS011;52812;48.960;9.108;2023-06-26T09:57:11;2.60;;;2.10;;
3085;SDS011;52812;48.960;9.108;2023-06-26T09:59:40;4.70;;;2.53;;
3085;SDS011;52812;48.960;9.108;2023-06-26T10:02:07;2.23;;;1.87;;
3085;SDS011;52812;48.960;9.108;2023-06-26T10:04:34;2.63;;;2.13;;
3085;SDS011;52812;48.960;9.108;2023-06-26T10:07:01;1.83;;;1.70;;
3085;SDS011;52812;48.960;9.108;2023-06-26T10:09:29;3.00;;;2.20;;
3085;SDS011;52812;48.960;9.108;2023-06-26T10:11:57;2.17;;;1.97;;
3085;SDS011;52812;48.960;9.108;2023-06-26T10:14:33;2.40;;;2.20;;
3085;SDS011;52812;48.960;9.108;2023-06-26T10:17:03;2.63;;;2.00;;
3085;SDS011;52812;48.960;9.108;2023-06-26T10:19:32;2.50;;;1.77;;
3085;SDS011;52812;48.960;9.108;2023-06-26T10:21:59;3.50;;;2.20;;
3085;SDS011;52812;48.960;9.108;2023-06-26T10:24:27;1.90;;;1.80;;
3085;SDS011;52812;48.960;9.108;2023-06-26T10:26:57;2.40;;;2.20;;
3085;SDS011;52812;48.960;9.108;2023-06-26T10:29:28;3.23;;;2.50;;
3085;SDS011;52812;48.960;9.108;2023-06-26T10:31:57;2.30;;;2.10;;
3085;SDS011;52812;48.960;9.108;2023-06-26T10:34:25;2.23;;;1.93;;
3085;SDS011;52812;48.960;9.108;2023-06-26T10:37:03;2.70;;;2.33;;
3085;SDS011;52812;48.960;9.108;2023-06-26T10:39:45;2.20;;;2.00;;
3085;SDS011;52812;48.960;9.108;2023-06-26T10:42:12;2.67;;;2.00;;
3085;SDS011;52812;48.960;9.108;2023-06-26T10:44:42;2.63;;;2.40;;
3085;SDS011;52812;48.960;9.108;2023-06-26T10:47:09;3.53;;;2.77;;
3085;SDS011;52812;48.960;9.108;2023-06-26T10:49:35;3.03;;;2.60;;
3085;SDS011;52812;48.960;9.108;2023-06-26T10:52:02;2.70;;;2.20;;
3085;SDS011;52812;48.960;9.108;2023-06-26T10:54:31;3.10;;;2.40;;
3085;SDS011;52812;48.960;9.108;2023-06-26T10:56:57;2.87;;;2.40;;
3085;SDS011;52812;48.960;9.108;2023-06-26T10:59:26;2.83;;;2.27;;
3085;SDS011;52812;48.960;9.108;2023-06-26T11:01:59;4.60;;;2.73;;
3085;SDS011;52812;48.960;9.108;2023-06-26T11:04:36;2.90;;;2.30;;
3085;SDS011;52812;48.960;9.108;2023-06-26T11:07:22;3.20;;;2.10;;
3085;SDS011;52812;48.960;9.108;2023-06-26T11:09:59;2.90;;;2.43;;
3085;SDS011;52812;48.960;9.108;2023-06-26T11:12:39;3.30;;;2.40;;
3085;SDS011;52812;48.960;9.108;2023-06-26T11:15:13;2.67;;;2.47;;
3085;SDS011;52812;48.960;9.108;2023-06-26T11:17:44;2.63;;;2.30;;
3085;SDS011;52812;48.960;9.108;2023-06-26T11:20:14;3.40;;;2.37;;
3085;SDS011;52812;48.960;9.108;2023-06-26T11:22:41;2.43;;;2.23;;
3085;SDS011;52812;48.960;9.108;2023-06-26T11:25:07;2.77;;;2.30;;
3085;SDS011;52812;48.960;9.108;2023-06-26T11:27:43;2.90;;;2.20;;
3085;SDS011;52812;48.960;9.108;2023-06-26T11:30:10;2.53;;;2.30;;
3085;SDS011;52812;48.960;9.108;2023-06-26T11:32:37;3.10;;;2.77;;
3085;SDS011;52812;48.960;9.108;2023-06-26T11:35:03;2.70;;;2.07;;
3085;SDS011;52812;48.960;9.108;2023-06-26T11:37:32;2.50;;;2.17;;
3085;SDS011;52812;48.960;9.108;2023-06-26T11:39:58;2.60;;;2.23;;
3085;SDS011;52812;48.960;9.108;2023-06-26T11:42:24;2.07;;;1.87;;
3085;SDS011;52812;48.960;9.108;2023-06-26T11:44:50;2.70;;;2.07;;
3085;SDS011;52812;48.960;9.108;2023-06-26T11:47:17;4.00;;;2.53;;
3085;SDS011;52812;48.960;9.108;2023-06-26T11:49:44;3.17;;;2.63;;
3085;SDS011;52812;48.960;9.108;2023-06-26T11:52:10;4.03;;;2.50;;
3085;SDS011;52812;48.960;9.108;2023-06-26T11:54:36;3.20;;;2.40;;
3085;SDS011;52812;48.960;9.108;2023-06-26T11:57:02;3.03;;;2.57;;
3085;SDS011;52812;48.960;9.108;2023-06-26T11:59:33;1.83;;;1.70;;
3085;SDS011;52812;48.960;9.108;2023-06-26T12:02:00;2.70;;;2.20;;
3085;SDS011;52812;48.960;9.108;2023-06-26T12:04:35;3.53;;;2.27;;
3085;SDS011;52812;48.960;9.108;2023-06-26T12:07:04;2.17;;;1.83;;
3085;SDS011;52812;48.960;9.108;2023-06-26T12:09:33;2.60;;;2.33;;
3085;SDS011;52812;48.960;9.108;2023-06-26T12:11:59;2.47;;;2.20;;
3085;SDS011;52812;48.960;9.108;2023-06-26T12:14:25;3.20;;;2.40;;
3085;SDS011;52812;48.960;9.108;2023-06-26T12:16:53;2.30;;;2.10;;
3085;SDS011;52812;48.960;9.108;2023-06-26T12:19:23;4.10;;;2.70;;
3085;SDS011;52812;48.960;9.108;2023-06-26T12:21:50;2.87;;;2.40;;
3085;SDS011;52812;48.960;9.108;2023-06-26T12:24:20;2.77;;;2.33;;
3085;SDS011;52812;48.960;9.108;2023-06-26T12:26:49;3.93;;;2.60;;
3085;SDS011;52812;48.960;9.108;2023-06-26T12:29:21;2.63;;;2.20;;
3085;SDS011;52812;48.960;9.108;2023-06-26T12:31:53;2.90;;;2.30;;
3085;SDS011;52812;48.960;9.108;2023-06-26T12:34:19;2.33;;;2.13;;
3085;SDS011;52812;48.960;9.108;2023-06-26T12:36:49;3.60;;;2.40;;
3085;SDS011;52812;48.960;9.108;2023-06-26T12:39:24;2.70;;;2.43;;
3085;SDS011;52812;48.960;9.108;2023-06-26T12:41:53;2.50;;;2.20;;
3085;SDS011;52812;48.960;9.108;2023-06-26T12:46:47;2.90;;;2.17;;
3085;SDS011;52812;48.960;9.108;2023-06-26T12:49:14;3.00;;;2.13;;
3085;SDS011;52812;48.960;9.108;2023-06-26T12:51:40;2.83;;;1.90;;
3085;SDS011;52812;48.960;9.108;2023-06-26T12:54:05;2.77;;;1.93;;
3085;SDS011;52812;48.960;9.108;2023-06-26T12:56:31;2.33;;;2.13;;
3085;SDS011;52812;48.960;9.108;2023-06-26T12:58:56;2.53;;;2.10;;
3085;SDS011;52812;48.960;9.108;2023-06-26T13:01:22;2.77;;;2.00;;
3085;SDS011;52812;48.960;9.108;2023-06-26T13:03:49;2.33;;;1.90;;
3085;SDS011;52812;48.960;9.108;2023-06-26T13:06:16;1.77;;;1.63;;
3085;SDS011;52812;48.960;9.108;2023-06-26T13:08:41;1.90;;;1.63;;
3085;SDS011;52812;48.960;9.108;2023-06-26T13:11:08;3.43;;;2.00;;
3085;SDS011;52812;48.960;9.108;2023-06-26T13:13:34;2.37;;;1.70;;
3085;SDS011;52812;48.960;9.108;2023-06-26T13:15:59;2.73;;;2.10;;
3085;SDS011;52812;48.960;9.108;2023-06-26T13:18:25;2.10;;;1.90;;
3085;SDS011;52812;48.960;9.108;2023-06-26T13:20:51;2.13;;;1.80;;
3085;SDS011;52812;48.960;9.108;2023-06-26T13:23:16;2.20;;;1.60;;
3085;SDS011;52812;48.960;9.108;2023-06-26T13:25:43;4.47;;;1.40;;
3085;SDS011;52812;48.960;9.108;2023-06-26T13:28:09;2.57;;;1.70;;
3085;SDS011;52812;48.960;9.108;2023-06-26T13:30:35;2.20;;;1.57;;
3085;SDS011;52812;48.960;9.108;2023-06-26T13:33:00;2.97;;;1.73;;
3085;SDS011;52812;48.960;9.108;2023-06-26T13:35:26;1.90;;;1.53;;
3085;SDS011;52812;48.960;9.108;2023-06-26T13:37:51;1.70;;;1.47;;
3085;SDS011;52812;48.960;9.108;2023-06-26T13:40:17;1.80;;;1.50;;
3085;SDS011;52812;48.960;9.108;2023-06-26T13:42:42;1.30;;;1.20;;
3085;SDS011;52812;48.960;9.108;2023-06-26T13:45:09;1.60;;;1.20;;
3085;SDS011;52812;48.960;9.108;2023-06-26T13:47:35;1.63;;;1.53;;
3085;SDS011;52812;48.960;9.108;2023-06-26T13:50:02;2.90;;;1.40;;
3085;SDS011;52812;48.960;9.108;2023-06-26T13:52:29;1.77;;;1.33;;
3085;SDS011;52812;48.960;9.108;2023-06-26T13:54:54;1.60;;;1.30;;
3085;SDS011;52812;48.960;9.108;2023-06-26T13:57:20;3.10;;;1.60;;
3085;SDS011;52812;48.960;9.108;2023-06-26T13:59:47;1.77;;;1.53;;
3085;SDS011;52812;48.960;9.108;2023-06-26T14:02:13;3.07;;;1.80;;
3085;SDS011;52812;48.960;9.108;2023-06-26T14:04:39;1.67;;;1.40;;
3085;SDS011;52812;48.960;9.108;2023-06-26T14:07:05;1.70;;;1.60;;
3085;SDS011;52812;48.960;9.108;2023-06-26T14:09:32;1.77;;;1.40;;
3085;SDS011;52812;48.960;9.108;2023-06-26T14:11:57;2.40;;;1.70;;
3085;SDS011;52812;48.960;9.108;2023-06-26T14:14:23;1.57;;;1.27;;
3085;SDS011;52812;48.960;9.108;2023-06-26T14:16:49;1.60;;;1.50;;
3085;SDS011;52812;48.960;9.108;2023-06-26T14:19:14;2.20;;;1.20;;
3085;SDS011;52812;48.960;9.108;2023-06-26T14:21:42;1.43;;;1.33;;
3085;SDS011;52812;48.960;9.108;2023-06-26T14:24:08;1.30;;;1.20;;
3085;SDS011;52812;48.960;9.108;2023-06-26T14:26:33;1.40;;;1.30;;
3085;SDS011;52812;48.960;9.108;2023-06-26T14:29:02;1.97;;;1.27;;
3085;SDS011;52812;48.960;9.108;2023-06-26T14:31:27;1.70;;;1.40;;
3085;SDS011;52812;48.960;9.108;2023-06-26T14:33:53;1.63;;;1.23;;
3085;SDS011;52812;48.960;9.108;2023-06-26T14:36:19;2.07;;;1.50;;
3085;SDS011;52812;48.960;9.108;2023-06-26T14:38:44;1.40;;;1.30;;
3085;SDS011;52812;48.960;9.108;2023-06-26T14:41:11;1.17;;;1.07;;
3085;SDS011;52812;48.960;9.108;2023-06-26T14:43:36;1.50;;;1.33;;
3085;SDS011;52812;48.960;9.108;2023-06-26T14:46:03;1.57;;;1.47;;
3085;SDS011;52812;48.960;9.108;2023-06-26T14:48:28;1.40;;;1.20;;
3085;SDS011;52812;48.960;9.108;2023-06-26T14:50:54;2.30;;;1.40;;
3085;SDS011;52812;48.960;9.108;2023-06-26T14:53:19;1.80;;;1.43;;
3085;SDS011;52812;48.960;9.108;2023-06-26T14:55:45;1.87;;;1.40;;
3085;SDS011;52812;48.960;9.108;2023-06-26T14:58:10;2.53;;;1.53;;
3085;SDS011;52812;48.960;9.108;2023-06-26T15:00:36;1.60;;;1.30;;
3085;SDS011;52812;48.960;9.108;2023-06-26T15:03:01;2.07;;;1.60;;
3085;SDS011;52812;48.960;9.108;2023-06-26T15:05:27;2.27;;;1.33;;
3085;SDS011;52812;48.960;9.108;2023-06-26T15:07:52;1.67;;;1.43;;
3085;SDS011;52812;48.960;9.108;2023-06-26T15:10:18;2.57;;;1.67;;